createdAt,value
2023-09-03T00:00:45.195Z,18.47
2023-09-03T00:03:12.779Z,18.55
2023-09-03T00:05:49.280Z,18.53
2023-09-03T00:08:16.881Z,18.50
2023-09-03T00:10:44.573Z,18.46
2023-09-03T00:13:12.040Z,18.50
2023-09-03T00:15:40.933Z,18.54
2023-09-03T00:18:11.655Z,18.53
2023-09-03T00:21:02.413Z,18.52
2023-09-03T00:23:30.485Z,18.44
2023-09-03T00:25:58.482Z,18.33
2023-09-03T00:28:27.043Z,18.34
2023-09-03T00:31:01.309Z,18.37
2023-09-03T00:33:29.514Z,18.22
2023-09-03T00:35:57.127Z,18.29
2023-09-03T00:38:24.610Z,18.31
2023-09-03T00:40:52.086Z,18.20
2023-09-03T00:43:19.646Z,18.21
2023-09-03T00:45:49.128Z,18.19
2023-09-03T00:48:19.599Z,18.11
2023-09-03T00:50:49.191Z,18.17
2023-09-03T00:53:17.964Z,18.07
2023-09-03T00:55:46.282Z,18.09
2023-09-03T00:58:15.351Z,17.99
2023-09-03T01:00:43.196Z,18.13
2023-09-03T01:03:10.941Z,18.17
2023-09-03T01:05:38.486Z,18.12
2023-09-03T01:08:06.341Z,18.07
2023-09-03T01:11:02.891Z,17.95
2023-09-03T01:13:51.282Z,17.93
2023-09-03T01:16:48.657Z,18.00
2023-09-03T01:19:37.405Z,18.14
2023-09-03T01:22:15.586Z,18.29
2023-09-03T01:24:45.792Z,18.35
2023-09-03T01:27:51.393Z,18.26
2023-09-03T01:30:20.856Z,18.27
2023-09-03T01:32:51.062Z,18.43
2023-09-03T01:35:20.452Z,18.34
2023-09-03T01:37:48.075Z,18.38
2023-09-03T01:40:15.620Z,18.20
2023-09-03T01:42:43.512Z,18.18
2023-09-03T01:45:11.632Z,18.21
2023-09-03T01:47:44.135Z,18.21
2023-09-03T01:50:29.907Z,18.03
2023-09-03T01:53:03.597Z,18.01
2023-09-03T01:55:35.206Z,18.15
2023-09-03T01:58:06.815Z,18.18
2023-09-03T02:00:35.406Z,18.28
2023-09-03T02:03:03.935Z,18.16
2023-09-03T02:05:31.505Z,18.13
2023-09-03T02:07:58.959Z,18.23
2023-09-03T02:10:26.485Z,18.02
2023-09-03T02:12:54.146Z,18.03
2023-09-03T02:15:21.691Z,17.94
2023-09-03T02:17:49.230Z,17.93
2023-09-03T02:20:17.439Z,18.08
2023-09-03T02:22:44.840Z,18.10
2023-09-03T02:25:12.377Z,18.04
2023-09-03T02:27:39.870Z,18.03
2023-09-03T02:30:07.746Z,18.10
2023-09-03T02:32:35.227Z,18.23
2023-09-03T02:35:03.126Z,18.34
2023-09-03T02:37:30.605Z,18.22
2023-09-03T02:39:58.164Z,18.22
2023-09-03T02:42:26.663Z,18.21
2023-09-03T02:44:54.537Z,18.31
2023-09-03T02:47:22.245Z,18.31
2023-09-03T02:49:49.875Z,18.31
2023-09-03T02:52:18.349Z,18.38
2023-09-03T02:54:45.846Z,18.44
2023-09-03T02:57:13.396Z,18.48
2023-09-03T02:59:44.924Z,18.39
2023-09-03T03:02:13.894Z,18.49
2023-09-03T03:04:41.343Z,18.41
2023-09-03T03:07:08.782Z,18.38
2023-09-03T03:09:36.231Z,18.34
2023-09-03T03:12:03.905Z,18.30
2023-09-03T03:14:31.620Z,18.34
2023-09-03T03:17:01.219Z,18.42
2023-09-03T03:19:28.638Z,18.52
2023-09-03T03:21:56.203Z,18.49
2023-09-03T03:24:24.586Z,18.49
2023-09-03T03:26:52.133Z,18.58
2023-09-03T03:29:23.614Z,18.54
2023-09-03T03:31:53.058Z,18.55
2023-09-03T03:34:21.120Z,18.49
2023-09-03T03:36:50.940Z,18.56
2023-09-03T03:39:18.744Z,18.58
2023-09-03T03:41:46.213Z,18.61
2023-09-03T03:44:17.471Z,18.67
2023-09-03T03:46:45.521Z,18.61
2023-09-03T03:49:12.901Z,18.66
2023-09-03T03:51:40.345Z,18.75
2023-09-03T03:54:07.942Z,18.74
2023-09-03T03:56:36.899Z,18.81
2023-09-03T03:59:05.012Z,18.76
2023-09-03T04:01:32.708Z,18.80
2023-09-03T04:04:00.419Z,18.88
2023-09-03T04:06:29.214Z,18.78
2023-09-03T04:08:56.874Z,18.69
2023-09-03T04:11:27.592Z,18.65
2023-09-03T04:13:55.044Z,18.66
2023-09-03T04:16:25.652Z,18.66
2023-09-03T04:18:53.849Z,18.39
2023-09-03T04:21:21.592Z,18.42
2023-09-03T04:23:49.128Z,18.24
2023-09-03T04:26:17.103Z,18.28
2023-09-03T04:28:56.105Z,18.24
2023-09-03T04:31:24.822Z,18.17
2023-09-03T04:33:53.036Z,18.21
2023-09-03T04:36:20.573Z,18.31
2023-09-03T04:38:48.046Z,18.28
2023-09-03T04:41:18.365Z,18.26
2023-09-03T04:44:10.509Z,18.35
2023-09-03T04:46:44.857Z,18.30
2023-09-03T04:49:12.341Z,18.33
2023-09-03T04:51:39.766Z,18.32
2023-09-03T04:54:08.078Z,18.25
2023-09-03T04:56:35.871Z,18.39
2023-09-03T04:59:03.423Z,18.32
2023-09-03T05:01:31.172Z,18.26
2023-09-03T05:04:00.253Z,18.39
2023-09-03T05:06:27.895Z,18.30
2023-09-03T05:08:58.070Z,18.30
2023-09-03T05:11:26.765Z,18.33
2023-09-03T05:13:54.335Z,18.35
2023-09-03T05:16:24.701Z,18.53
2023-09-03T05:18:52.504Z,18.58
2023-09-03T05:21:21.566Z,18.46
2023-09-03T05:23:50.365Z,18.36
2023-09-03T05:26:17.881Z,18.30
2023-09-03T05:28:45.516Z,18.37
2023-09-03T05:31:13.214Z,18.36
2023-09-03T05:33:42.345Z,18.38
2023-09-03T05:36:11.297Z,18.40
2023-09-03T05:38:40.434Z,18.46
2023-09-03T05:41:07.896Z,18.58
2023-09-03T05:43:35.423Z,18.57
2023-09-03T05:46:03.595Z,18.56
2023-09-03T05:48:31.378Z,18.69
2023-09-03T05:51:06.980Z,18.70
2023-09-03T05:53:37.407Z,18.60
2023-09-03T05:56:13.371Z,18.57
2023-09-03T05:58:46.358Z,18.52
2023-09-03T06:01:14.383Z,18.56
2023-09-03T06:03:43.027Z,18.55
2023-09-03T06:06:12.840Z,18.53
2023-09-03T06:08:43.225Z,18.60
2023-09-03T06:11:10.905Z,18.53
2023-09-03T06:13:38.601Z,18.44
2023-09-03T06:16:06.066Z,18.41
2023-09-03T06:18:33.842Z,18.49
2023-09-03T06:21:01.466Z,18.57
2023-09-03T06:23:28.972Z,18.63
2023-09-03T06:26:02.374Z,18.62
2023-09-03T06:28:30.211Z,18.73
2023-09-03T06:31:00.282Z,18.66
2023-09-03T06:33:27.908Z,18.64
2023-09-03T06:35:55.544Z,18.75
2023-09-03T06:38:23.470Z,18.80
2023-09-03T06:40:51.281Z,18.86
2023-09-03T06:43:20.309Z,18.94
2023-09-03T06:45:48.056Z,18.98
2023-09-03T06:48:15.626Z,18.97
2023-09-03T06:50:43.290Z,19.02
2023-09-03T06:53:12.775Z,18.99
2023-09-03T06:55:40.564Z,19.06
2023-09-03T06:58:08.065Z,19.11
2023-09-03T07:00:36.051Z,19.04
2023-09-03T07:03:03.775Z,19.13
2023-09-03T07:05:31.501Z,19.12
2023-09-03T07:07:59.084Z,19.10
2023-09-03T07:10:26.462Z,19.16
2023-09-03T07:12:54.097Z,19.25
2023-09-03T07:15:21.566Z,19.43
2023-09-03T07:17:49.065Z,19.49
2023-09-03T07:20:16.524Z,19.45
2023-09-03T07:22:44.337Z,19.39
2023-09-03T07:25:11.942Z,19.34
2023-09-03T07:27:40.316Z,19.43
2023-09-03T07:30:09.928Z,19.58
2023-09-03T07:32:38.746Z,19.57
2023-09-03T07:35:08.659Z,19.62
2023-09-03T07:37:36.452Z,19.76
2023-09-03T07:40:05.335Z,19.83
2023-09-03T07:42:32.818Z,20.02
2023-09-03T07:45:00.218Z,20.23
2023-09-03T07:47:27.701Z,20.44
2023-09-03T07:49:55.265Z,20.41
2023-09-03T07:52:22.821Z,20.44
2023-09-03T07:54:50.309Z,20.33
2023-09-03T07:57:17.911Z,20.36
2023-09-03T07:59:45.430Z,20.42
2023-09-03T08:02:14.133Z,20.65
2023-09-03T08:04:43.526Z,20.95
2023-09-03T08:07:11.486Z,21.27
2023-09-03T08:09:39.543Z,21.60
2023-09-03T08:12:07.618Z,21.66
2023-09-03T08:14:35.083Z,21.76
2023-09-03T08:17:02.549Z,22.00
2023-09-03T08:19:30.025Z,22.94
2023-09-03T08:21:57.494Z,24.33
2023-09-03T08:24:25.023Z,25.13
2023-09-03T08:26:52.428Z,25.21
2023-09-03T08:29:19.922Z,25.80
2023-09-03T08:31:47.596Z,26.59
2023-09-03T08:34:15.319Z,27.57
2023-09-03T08:36:43.181Z,28.31
2023-09-03T08:39:10.600Z,28.90
2023-09-03T08:41:41.116Z,29.47
2023-09-03T08:44:18.722Z,29.83
2023-09-03T08:46:52.281Z,30.44
2023-09-03T08:49:20.457Z,31.05
2023-09-03T08:51:48.082Z,31.34
2023-09-03T08:54:15.681Z,31.68
2023-09-03T08:56:43.128Z,31.88
2023-09-03T08:59:11.629Z,32.12
2023-09-03T09:01:40.000Z,32.58
2023-09-03T09:04:07.845Z,32.87
2023-09-03T09:06:36.911Z,33.07
2023-09-03T09:09:04.977Z,32.74
2023-09-03T09:11:39.715Z,32.28
2023-09-03T09:14:16.746Z,31.98
2023-09-03T09:16:44.204Z,31.90
2023-09-03T09:19:17.020Z,31.98
2023-09-03T09:21:44.518Z,31.47
2023-09-03T09:24:13.052Z,30.88
2023-09-03T09:26:40.606Z,30.54
2023-09-03T09:29:08.253Z,30.42
2023-09-03T09:31:36.247Z,30.54
2023-09-03T09:34:14.953Z,30.56
2023-09-03T09:36:55.545Z,30.84
2023-09-03T09:39:25.746Z,31.13
2023-09-03T09:42:20.174Z,31.38
2023-09-03T09:44:56.260Z,31.86
2023-09-03T09:47:24.276Z,32.12
2023-09-03T09:49:52.010Z,32.11
2023-09-03T09:52:20.521Z,32.05
2023-09-03T09:54:50.263Z,32.14
2023-09-03T09:57:23.318Z,32.37
2023-09-03T10:00:01.254Z,32.49
2023-09-03T10:02:28.810Z,32.63
2023-09-03T10:04:56.730Z,32.85
2023-09-03T10:07:24.310Z,32.97
2023-09-03T10:09:51.831Z,33.09
2023-09-03T10:12:19.260Z,32.80
2023-09-03T10:14:46.734Z,32.42
2023-09-03T10:17:14.411Z,32.17
2023-09-03T10:20:05.830Z,32.09
2023-09-03T10:22:38.086Z,32.15
2023-09-03T10:25:11.922Z,31.63
2023-09-03T10:27:44.222Z,31.09
2023-09-03T10:30:13.839Z,30.42
2023-09-03T10:32:43.901Z,30.45
2023-09-03T10:35:12.716Z,30.39
2023-09-03T10:37:41.910Z,30.22
2023-09-03T10:40:22.656Z,30.02
2023-09-03T10:42:55.350Z,30.26
2023-09-03T10:45:22.882Z,30.51
2023-09-03T10:48:02.945Z,31.01
2023-09-03T10:50:51.620Z,31.24
2023-09-03T10:53:41.923Z,31.09
2023-09-03T10:56:17.685Z,31.24
2023-09-03T10:59:01.973Z,31.32
2023-09-03T11:01:33.105Z,31.17
2023-09-03T11:04:01.848Z,31.01
2023-09-03T11:06:35.786Z,31.07
2023-09-03T11:09:05.288Z,31.07
2023-09-03T11:11:37.396Z,31.06
2023-09-03T11:14:07.678Z,31.19
2023-09-03T11:16:37.449Z,30.99
2023-09-03T11:19:08.549Z,30.99
2023-09-03T11:21:38.205Z,31.07
2023-09-03T11:24:22.211Z,30.62
2023-09-03T11:27:05.161Z,30.78
2023-09-03T11:29:32.730Z,30.73
2023-09-03T11:32:00.919Z,30.90
2023-09-03T11:34:32.203Z,30.69
2023-09-03T11:37:00.013Z,30.77
2023-09-03T11:39:27.728Z,30.70
2023-09-03T11:41:55.508Z,30.74
2023-09-03T11:44:24.832Z,31.03
2023-09-03T11:46:59.906Z,31.09
2023-09-03T11:49:27.687Z,31.22
2023-09-03T11:51:55.744Z,31.17
2023-09-03T11:54:24.606Z,31.08
2023-09-03T11:57:00.099Z,30.78
2023-09-03T11:59:27.794Z,30.52
2023-09-03T12:01:55.422Z,30.47
2023-09-03T12:04:23.379Z,30.20
2023-09-03T12:06:50.859Z,30.32
2023-09-03T12:09:23.698Z,30.40
2023-09-03T12:11:51.580Z,30.58
2023-09-03T12:14:31.936Z,30.67
2023-09-03T12:16:59.548Z,30.55
2023-09-03T12:19:44.830Z,30.54
2023-09-03T12:22:15.096Z,30.76
2023-09-03T12:24:42.674Z,30.90
2023-09-03T12:27:10.188Z,30.85
2023-09-03T12:29:51.344Z,30.98
2023-09-03T12:32:34.791Z,31.16
2023-09-03T12:35:14.585Z,31.13
2023-09-03T12:37:42.078Z,31.05
2023-09-03T12:40:09.712Z,31.01
2023-09-03T12:42:37.469Z,30.85
2023-09-03T12:45:06.725Z,30.93
2023-09-03T12:47:34.326Z,30.96
2023-09-03T12:50:01.801Z,31.08
2023-09-03T12:52:29.304Z,31.16
2023-09-03T12:54:56.763Z,31.05
2023-09-03T12:57:24.971Z,31.09
2023-09-03T12:59:52.391Z,31.06
2023-09-03T13:02:19.981Z,30.82
2023-09-03T13:04:47.383Z,30.81
2023-09-03T13:07:14.856Z,30.82
2023-09-03T13:09:42.254Z,30.85
2023-09-03T13:12:10.324Z,30.85
2023-09-03T13:14:37.788Z,30.92
2023-09-03T13:17:05.149Z,30.72
2023-09-03T13:19:32.610Z,30.71
2023-09-03T13:22:00.108Z,30.71
2023-09-03T13:24:27.626Z,30.62
2023-09-03T13:26:55.107Z,30.74
2023-09-03T13:29:22.656Z,30.84
2023-09-03T13:31:50.200Z,30.82
2023-09-03T13:34:17.685Z,30.88
2023-09-03T13:36:48.102Z,30.92
2023-09-03T13:39:17.445Z,30.88
2023-09-03T13:41:44.880Z,30.92
2023-09-03T13:44:12.276Z,31.01
2023-09-03T13:46:39.815Z,31.01
2023-09-03T13:49:07.232Z,31.07
2023-09-03T13:51:34.713Z,31.05
2023-09-03T13:54:02.235Z,30.96
2023-09-03T13:56:29.834Z,30.87
2023-09-03T13:58:57.228Z,30.85
2023-09-03T14:01:25.234Z,30.86
2023-09-03T14:03:52.675Z,30.87
2023-09-03T14:06:20.782Z,30.85
2023-09-03T14:08:48.892Z,30.89
2023-09-03T14:11:16.382Z,30.99
2023-09-03T14:13:45.187Z,31.03
2023-09-03T14:16:16.730Z,30.92
2023-09-03T14:18:45.260Z,30.89
2023-09-03T14:21:12.815Z,30.96
2023-09-03T14:23:40.262Z,30.98
2023-09-03T14:26:17.383Z,31.06
2023-09-03T14:28:45.534Z,31.04
2023-09-03T14:31:13.175Z,31.00
2023-09-03T14:33:40.687Z,30.85
2023-09-03T14:36:08.221Z,30.84
2023-09-03T14:38:35.621Z,30.77
2023-09-03T14:41:03.095Z,30.85
2023-09-03T14:43:30.577Z,30.85
2023-09-03T14:46:01.708Z,30.83
2023-09-03T14:48:29.554Z,30.91
2023-09-03T14:50:57.115Z,30.96
2023-09-03T14:53:24.870Z,30.93
2023-09-03T14:55:52.323Z,30.96
2023-09-03T14:58:20.178Z,31.05
2023-09-03T15:00:48.366Z,31.14
2023-09-03T15:03:16.013Z,31.12
2023-09-03T15:05:43.527Z,31.21
2023-09-03T15:08:12.692Z,31.29
2023-09-03T15:10:40.920Z,31.30
2023-09-03T15:13:08.450Z,31.07
2023-09-03T15:15:39.863Z,30.86
2023-09-03T15:18:10.305Z,31.02
2023-09-03T15:20:38.485Z,30.97
2023-09-03T15:23:06.227Z,30.91
2023-09-03T15:25:33.627Z,30.86
2023-09-03T15:28:01.041Z,30.83
2023-09-03T15:30:33.888Z,30.93
2023-09-03T15:33:03.240Z,30.97
2023-09-03T15:35:37.028Z,31.01
2023-09-03T15:38:04.620Z,30.96
2023-09-03T15:40:32.099Z,31.03
2023-09-03T15:42:59.749Z,30.99
2023-09-03T15:45:31.422Z,30.95
2023-09-03T15:48:03.856Z,30.93
2023-09-03T15:50:33.021Z,30.98
2023-09-03T15:53:01.192Z,30.89
2023-09-03T15:55:31.090Z,30.96
2023-09-03T15:57:58.620Z,30.97
2023-09-03T16:00:26.083Z,30.97
2023-09-03T16:02:53.522Z,30.97
2023-09-03T16:05:21.127Z,30.94
2023-09-03T16:07:48.611Z,30.96
2023-09-03T16:10:16.124Z,30.94
2023-09-03T16:12:43.719Z,30.97
2023-09-03T16:15:11.728Z,30.94
2023-09-03T16:17:39.278Z,30.88
2023-09-03T16:20:08.642Z,30.85
2023-09-03T16:22:36.374Z,30.90
2023-09-03T16:25:05.003Z,30.92
2023-09-03T16:27:32.585Z,30.96
2023-09-03T16:30:00.104Z,30.90
2023-09-03T16:32:28.645Z,30.77
2023-09-03T16:34:56.740Z,30.71
2023-09-03T16:37:24.309Z,30.71
2023-09-03T16:39:51.764Z,30.69
2023-09-03T16:42:19.361Z,30.66
2023-09-03T16:44:46.751Z,30.65
2023-09-03T16:47:14.233Z,30.54
2023-09-03T16:49:41.648Z,30.56
2023-09-03T16:52:09.143Z,30.48
2023-09-03T16:54:38.282Z,30.51
2023-09-03T16:57:05.670Z,30.45
2023-09-03T16:59:33.094Z,30.44
2023-09-03T17:02:01.599Z,30.42
2023-09-03T17:04:29.016Z,30.38
2023-09-03T17:06:57.121Z,30.26
2023-09-03T17:09:24.594Z,30.25
2023-09-03T17:11:52.083Z,30.23
2023-09-03T17:14:19.494Z,30.25
2023-09-03T17:16:47.024Z,30.30
2023-09-03T17:19:14.526Z,30.30
2023-09-03T17:21:42.010Z,30.25
2023-09-03T17:24:09.488Z,30.23
2023-09-03T17:26:36.982Z,30.14
2023-09-03T17:29:07.356Z,30.13
2023-09-03T17:31:36.012Z,30.08
2023-09-03T17:34:05.072Z,29.95
2023-09-03T17:36:33.041Z,29.85
2023-09-03T17:39:00.618Z,29.81
2023-09-03T17:41:28.167Z,29.79
2023-09-03T17:43:56.902Z,29.74
2023-09-03T17:46:24.704Z,29.69
2023-09-03T17:48:52.187Z,29.64
2023-09-03T17:51:19.552Z,29.60
2023-09-03T17:53:47.042Z,29.58
2023-09-03T17:56:14.543Z,29.55
2023-09-03T17:58:42.028Z,29.51
2023-09-03T18:01:09.462Z,29.52
2023-09-03T18:03:36.991Z,29.45
2023-09-03T18:06:13.419Z,29.46
2023-09-03T18:08:41.226Z,29.42
2023-09-03T18:11:16.117Z,29.36
2023-09-03T18:13:45.318Z,29.26
2023-09-03T18:16:15.357Z,29.23
2023-09-03T18:18:45.698Z,29.20
2023-09-03T18:21:17.215Z,29.10
2023-09-03T18:23:46.666Z,29.08
2023-09-03T18:26:14.162Z,28.99
2023-09-03T18:28:47.522Z,28.99
2023-09-03T18:31:15.626Z,28.94
2023-09-03T18:33:43.048Z,28.80
2023-09-03T18:36:10.558Z,28.78
2023-09-03T18:38:39.042Z,28.71
2023-09-03T18:41:06.528Z,28.60
2023-09-03T18:43:33.978Z,28.56
2023-09-03T18:46:03.442Z,28.52
2023-09-03T18:48:31.409Z,28.45
2023-09-03T18:51:03.194Z,28.40
2023-09-03T18:53:30.995Z,28.30
2023-09-03T18:56:03.521Z,28.20
2023-09-03T18:58:32.630Z,28.16
2023-09-03T19:01:08.705Z,28.07
2023-09-03T19:03:36.327Z,27.96
2023-09-03T19:06:05.622Z,27.95
2023-09-03T19:08:33.515Z,27.89
2023-09-03T19:11:01.574Z,27.83
2023-09-03T19:13:29.103Z,27.78
2023-09-03T19:15:59.250Z,27.79
2023-09-03T19:18:27.307Z,27.66
2023-09-03T19:20:56.651Z,27.66
2023-09-03T19:23:24.395Z,27.60
2023-09-03T19:25:52.586Z,27.59
2023-09-03T19:28:22.170Z,27.48
2023-09-03T19:30:52.154Z,27.44
2023-09-03T19:33:21.226Z,27.38
2023-09-03T19:35:58.053Z,27.28
2023-09-03T19:38:27.067Z,27.22
2023-09-03T19:40:54.995Z,27.19
2023-09-03T19:43:24.451Z,27.09
2023-09-03T19:45:59.655Z,27.11
2023-09-03T19:48:35.090Z,26.99
2023-09-03T19:51:03.245Z,26.97
2023-09-03T19:53:33.312Z,26.84
2023-09-03T19:56:12.072Z,26.83
2023-09-03T19:58:39.657Z,26.73
2023-09-03T20:01:08.048Z,26.60
2023-09-03T20:03:35.857Z,26.60
2023-09-03T20:06:03.622Z,26.49
2023-09-03T20:08:32.044Z,26.52
2023-09-03T20:11:03.979Z,26.60
2023-09-03T20:13:32.636Z,26.50
2023-09-03T20:16:01.918Z,26.46
2023-09-03T20:18:30.081Z,26.42
2023-09-03T20:21:00.718Z,26.34
2023-09-03T20:23:28.891Z,26.20
2023-09-03T20:25:56.495Z,26.17
2023-09-03T20:28:35.360Z,26.10
2023-09-03T20:31:07.411Z,26.16
2023-09-03T20:33:34.885Z,26.12
2023-09-03T20:36:02.326Z,25.96
2023-09-03T20:38:30.046Z,25.83
2023-09-03T20:40:57.659Z,25.78
2023-09-03T20:43:28.170Z,25.70
2023-09-03T20:45:59.412Z,25.60
2023-09-03T20:48:27.502Z,25.64
2023-09-03T20:50:59.284Z,25.61
2023-09-03T20:53:26.732Z,25.50
2023-09-03T20:55:55.451Z,25.50
2023-09-03T20:58:24.598Z,25.53
2023-09-03T21:00:52.657Z,25.44
2023-09-03T21:03:20.342Z,25.56
2023-09-03T21:05:54.909Z,25.68
2023-09-03T21:08:25.175Z,25.63
2023-09-03T21:11:01.232Z,25.64
2023-09-03T21:13:30.657Z,25.63
2023-09-03T21:15:59.327Z,25.61
2023-09-03T21:18:28.915Z,25.64
2023-09-03T21:21:01.726Z,25.68
2023-09-03T21:23:31.944Z,25.72
2023-09-03T21:25:59.963Z,25.74
2023-09-03T21:28:27.600Z,25.76
2023-09-03T21:30:55.054Z,25.78
2023-09-03T21:33:22.586Z,25.77
2023-09-03T21:35:50.035Z,25.73
2023-09-03T21:38:17.659Z,25.76
2023-09-03T21:40:45.224Z,25.72
2023-09-03T21:43:12.758Z,25.69
2023-09-03T21:45:40.350Z,25.63
2023-09-03T21:48:09.726Z,25.63
2023-09-03T21:50:37.466Z,25.57
2023-09-03T21:53:05.127Z,25.50
2023-09-03T21:55:33.018Z,25.53
2023-09-03T21:58:00.659Z,25.44
2023-09-03T22:00:28.103Z,25.44
2023-09-03T22:02:55.700Z,25.40
2023-09-03T22:05:23.290Z,25.36
2023-09-03T22:07:50.724Z,25.32
2023-09-03T22:10:18.326Z,25.26
2023-09-03T22:12:45.796Z,25.19
2023-09-03T22:15:13.545Z,25.16
2023-09-03T22:17:41.494Z,25.13
2023-09-03T22:20:09.644Z,25.14
2023-09-03T22:22:37.229Z,25.10
2023-09-03T22:25:05.772Z,25.10
2023-09-03T22:27:33.861Z,25.07
2023-09-03T22:30:01.435Z,24.99
2023-09-03T22:32:29.012Z,25.01
2023-09-03T22:34:56.664Z,24.96
2023-09-03T22:37:24.416Z,24.93
2023-09-03T22:39:51.860Z,24.86
2023-09-03T22:42:19.620Z,24.89
2023-09-03T22:44:47.090Z,24.82
2023-09-03T22:47:16.057Z,24.83
2023-09-03T22:49:46.987Z,24.80
2023-09-03T22:52:16.212Z,24.70
2023-09-03T22:54:43.783Z,24.62
2023-09-03T22:57:11.344Z,24.61
2023-09-03T22:59:38.903Z,24.63
2023-09-03T23:02:06.567Z,24.54
2023-09-03T23:04:34.044Z,24.51
2023-09-03T23:07:01.612Z,24.53
2023-09-03T23:09:29.033Z,24.52
2023-09-03T23:11:57.441Z,24.46
2023-09-03T23:14:25.856Z,24.46
2023-09-03T23:16:53.684Z,24.43
2023-09-03T23:19:21.175Z,24.37
2023-09-03T23:21:48.643Z,24.36
2023-09-03T23:24:16.455Z,24.30
2023-09-03T23:26:44.309Z,24.34
2023-09-03T23:29:12.407Z,24.31
2023-09-03T23:31:39.884Z,24.27
2023-09-03T23:34:07.443Z,24.19
2023-09-03T23:36:34.918Z,24.17
2023-09-03T23:39:02.320Z,24.12
2023-09-03T23:41:29.892Z,24.11
2023-09-03T23:43:57.335Z,24.13
2023-09-03T23:46:24.757Z,24.11
2023-09-03T23:48:52.296Z,24.13
2023-09-03T23:51:21.241Z,24.12
2023-09-03T23:53:48.685Z,24.11
2023-09-03T23:56:16.100Z,24.05
2023-09-03T23:58:43.777Z,24.02
